sensor_id;sensor_type;location;lat;lon;timestamp;pressure;altitude;pressure_sealevel;temperature;humidity
30730;BME280;17476;48.458;7.928;2023-04-25T00:01:32;99419.66;;;10.94;75.24
30730;BME280;17476;48.458;7.928;2023-04-25T00:04:02;99419.03;;;10.92;72.63
30730;BME280;17476;48.458;7.928;2023-04-25T00:06:29;99415.75;;;10.90;75.01
30730;BME280;17476;48.458;7.928;2023-04-25T00:08:57;99410.50;;;10.90;73.19
30730;BME280;17476;48.458;7.928;2023-04-25T00:11:24;99415.31;;;10.87;74.53
30730;BME280;17476;48.458;7.928;2023-04-25T00:13:50;99422.97;;;10.88;74.24
30730;BME280;17476;48.458;7.928;2023-04-25T00:16:19;99418.56;;;10.89;75.17
30730;BME280;17476;48.458;7.928;2023-04-25T00:18:45;99419.72;;;10.86;74.11
30730;BME280;17476;48.458;7.928;2023-04-25T00:21:18;99415.31;;;10.87;74.42
30730;BME280;17476;48.458;7.928;2023-04-25T00:23:45;99417.75;;;10.88;74.82
30730;BME280;17476;48.458;7.928;2023-04-25T00:26:12;99419.38;;;10.89;75.84
30730;BME280;17476;48.458;7.928;2023-04-25T00:28:39;99420.97;;;10.90;75.16
30730;BME280;17476;48.458;7.928;2023-04-25T00:31:05;99409.25;;;10.86;76.20
30730;BME280;17476;48.458;7.928;2023-04-25T00:33:31;99406.03;;;10.84;75.62
30730;BME280;17476;48.458;7.928;2023-04-25T00:35:56;99408.34;;;10.79;76.02
30730;BME280;17476;48.458;7.928;2023-04-25T00:38:22;99409.78;;;10.67;76.84
30730;BME280;17476;48.458;7.928;2023-04-25T00:40:48;99403.63;;;10.60;76.96
30730;BME280;17476;48.458;7.928;2023-04-25T00:43:14;99413.16;;;10.53;77.61
30730;BME280;17476;48.458;7.928;2023-04-25T00:45:40;99406.19;;;10.45;77.51
30730;BME280;17476;48.458;7.928;2023-04-25T00:48:06;99404.09;;;10.41;78.25
30730;BME280;17476;48.458;7.928;2023-04-25T00:50:36;99405.63;;;10.35;78.77
30730;BME280;17476;48.458;7.928;2023-04-25T00:53:02;99391.44;;;10.29;78.83
30730;BME280;17476;48.458;7.928;2023-04-25T00:55:29;99399.00;;;10.24;78.35
30730;BME280;17476;48.458;7.928;2023-04-25T00:57:57;99394.63;;;10.17;78.95
30730;BME280;17476;48.458;7.928;2023-04-25T01:00:23;99393.53;;;10.11;79.13
30730;BME280;17476;48.458;7.928;2023-04-25T01:02:49;99397.63;;;10.05;79.73
30730;BME280;17476;48.458;7.928;2023-04-25T01:05:15;99395.19;;;10.04;79.94
30730;BME280;17476;48.458;7.928;2023-04-25T01:07:41;99400.56;;;10.02;80.95
30730;BME280;17476;48.458;7.928;2023-04-25T01:10:08;99396.19;;;10.03;81.10
30730;BME280;17476;48.458;7.928;2023-04-25T01:12:34;99395.19;;;10.04;81.23
30730;BME280;17476;48.458;7.928;2023-04-25T01:15:00;99401.88;;;10.06;81.18
30730;BME280;17476;48.458;7.928;2023-04-25T01:17:26;99402.34;;;10.10;80.96
30730;BME280;17476;48.458;7.928;2023-04-25T01:19:53;99398.38;;;10.14;79.43
30730;BME280;17476;48.458;7.928;2023-04-25T01:22:19;99392.97;;;10.16;80.87
30730;BME280;17476;48.458;7.928;2023-04-25T01:24:45;99386.25;;;10.21;80.57
30730;BME280;17476;48.458;7.928;2023-04-25T01:27:11;99395.25;;;10.19;80.39
30730;BME280;17476;48.458;7.928;2023-04-25T01:29:37;99393.16;;;10.14;79.99
30730;BME280;17476;48.458;7.928;2023-04-25T01:32:04;99386.69;;;10.10;79.73
30730;BME280;17476;48.458;7.928;2023-04-25T01:34:30;99390.13;;;10.02;79.13
30730;BME280;17476;48.458;7.928;2023-04-25T01:36:56;99384.63;;;9.97;80.24
30730;BME280;17476;48.458;7.928;2023-04-25T01:39:24;99381.34;;;10.03;81.67
30730;BME280;17476;48.458;7.928;2023-04-25T01:41:50;99383.25;;;10.09;81.78
30730;BME280;17476;48.458;7.928;2023-04-25T01:44:16;99381.56;;;10.17;81.03
30730;BME280;17476;48.458;7.928;2023-04-25T01:46:42;99384.63;;;10.20;81.23
30730;BME280;17476;48.458;7.928;2023-04-25T01:49:08;99377.28;;;10.24;80.89
30730;BME280;17476;48.458;7.928;2023-04-25T01:51:34;99380.03;;;10.22;81.01
30730;BME280;17476;48.458;7.928;2023-04-25T01:54:00;99376.97;;;10.19;79.48
30730;BME280;17476;48.458;7.928;2023-04-25T01:56:31;99380.78;;;10.08;81.00
30730;BME280;17476;48.458;7.928;2023-04-25T01:58:58;99377.44;;;9.99;79.85
30730;BME280;17476;48.458;7.928;2023-04-25T02:01:24;99380.56;;;9.95;81.09
30730;BME280;17476;48.458;7.928;2023-04-25T02:03:49;99374.69;;;9.93;82.26
30730;BME280;17476;48.458;7.928;2023-04-25T02:06:15;99373.88;;;9.92;81.88
30730;BME280;17476;48.458;7.928;2023-04-25T02:08:41;99372.09;;;9.93;82.42
30730;BME280;17476;48.458;7.928;2023-04-25T02:11:07;99366.88;;;9.93;82.27
30730;BME280;17476;48.458;7.928;2023-04-25T02:13:33;99371.44;;;9.91;82.16
30730;BME280;17476;48.458;7.928;2023-04-25T02:15:58;99369.16;;;9.88;82.04
30730;BME280;17476;48.458;7.928;2023-04-25T02:18:24;99370.66;;;9.82;81.48
30730;BME280;17476;48.458;7.928;2023-04-25T02:20:52;99369.22;;;9.79;82.37
30730;BME280;17476;48.458;7.928;2023-04-25T02:23:17;99364.69;;;9.73;82.13
30730;BME280;17476;48.458;7.928;2023-04-25T02:25:44;99365.38;;;9.67;81.82
30730;BME280;17476;48.458;7.928;2023-04-25T02:28:11;99367.72;;;9.62;82.08
30730;BME280;17476;48.458;7.928;2023-04-25T02:30:37;99366.59;;;9.56;82.75
30730;BME280;17476;48.458;7.928;2023-04-25T02:33:03;99362.69;;;9.52;82.51
30730;BME280;17476;48.458;7.928;2023-04-25T02:35:28;99367.09;;;9.52;83.06
30730;BME280;17476;48.458;7.928;2023-04-25T02:37:54;99362.06;;;9.50;83.90
30730;BME280;17476;48.458;7.928;2023-04-25T02:40:20;99367.09;;;9.52;83.88
30730;BME280;17476;48.458;7.928;2023-04-25T02:42:46;99365.13;;;9.54;84.11
30730;BME280;17476;48.458;7.928;2023-04-25T02:45:12;99366.25;;;9.60;84.31
30730;BME280;17476;48.458;7.928;2023-04-25T02:47:38;99368.97;;;9.66;84.73
30730;BME280;17476;48.458;7.928;2023-04-25T02:50:04;99361.44;;;9.71;83.59
30730;BME280;17476;48.458;7.928;2023-04-25T02:52:30;99361.09;;;9.74;84.07
30730;BME280;17476;48.458;7.928;2023-04-25T02:54:56;99356.16;;;9.79;83.44
30730;BME280;17476;48.458;7.928;2023-04-25T02:57:22;99360.06;;;9.83;83.74
30730;BME280;17476;48.458;7.928;2023-04-25T02:59:48;99359.38;;;9.90;83.32
30730;BME280;17476;48.458;7.928;2023-04-25T03:02:14;99367.50;;;9.95;81.79
30730;BME280;17476;48.458;7.928;2023-04-25T03:04:39;99366.56;;;9.88;82.49
30730;BME280;17476;48.458;7.928;2023-04-25T03:07:05;99372.47;;;9.81;82.89
30730;BME280;17476;48.458;7.928;2023-04-25T03:09:31;99367.31;;;9.73;83.45
30730;BME280;17476;48.458;7.928;2023-04-25T03:11:57;99379.91;;;9.70;84.26
30730;BME280;17476;48.458;7.928;2023-04-25T03:14:23;99379.28;;;9.60;86.14
30730;BME280;17476;48.458;7.928;2023-04-25T03:16:48;99382.47;;;9.39;88.71
30730;BME280;17476;48.458;7.928;2023-04-25T03:19:14;99380.22;;;9.27;90.00
30730;BME280;17476;48.458;7.928;2023-04-25T03:21:42;99367.03;;;9.29;90.45
30730;BME280;17476;48.458;7.928;2023-04-25T03:24:10;99352.19;;;9.29;90.48
30730;BME280;17476;48.458;7.928;2023-04-25T03:26:36;99350.72;;;9.35;90.85
30730;BME280;17476;48.458;7.928;2023-04-25T03:29:02;99351.16;;;9.39;89.89
30730;BME280;17476;48.458;7.928;2023-04-25T03:31:28;99338.06;;;9.47;90.36
30730;BME280;17476;48.458;7.928;2023-04-25T03:33:54;99330.56;;;9.52;91.35
30730;BME280;17476;48.458;7.928;2023-04-25T03:36:19;99321.91;;;9.51;91.13
30730;BME280;17476;48.458;7.928;2023-04-25T03:38:45;99325.09;;;9.62;90.47
30730;BME280;17476;48.458;7.928;2023-04-25T03:41:12;99325.41;;;9.67;89.86
30730;BME280;17476;48.458;7.928;2023-04-25T03:43:37;99334.28;;;9.57;90.90
30730;BME280;17476;48.458;7.928;2023-04-25T03:46:03;99320.41;;;9.57;90.19
30730;BME280;17476;48.458;7.928;2023-04-25T03:48:29;99323.03;;;9.57;90.36
30730;BME280;17476;48.458;7.928;2023-04-25T03:50:55;99323.72;;;9.51;91.25
30730;BME280;17476;48.458;7.928;2023-04-25T03:53:21;99322.09;;;9.50;91.57
30730;BME280;17476;48.458;7.928;2023-04-25T03:55:47;99317.03;;;9.48;91.58
30730;BME280;17476;48.458;7.928;2023-04-25T03:58:13;99316.34;;;9.54;91.14
30730;BME280;17476;48.458;7.928;2023-04-25T04:00:38;99319.94;;;9.53;91.03
30730;BME280;17476;48.458;7.928;2023-04-25T04:03:04;99320.75;;;9.54;91.61
30730;BME280;17476;48.458;7.928;2023-04-25T04:05:30;99318.44;;;9.59;91.30
30730;BME280;17476;48.458;7.928;2023-04-25T04:07:59;99311.91;;;9.63;91.25
30730;BME280;17476;48.458;7.928;2023-04-25T04:10:25;99313.81;;;9.69;90.06
30730;BME280;17476;48.458;7.928;2023-04-25T04:12:51;99309.31;;;9.55;90.35
30730;BME280;17476;48.458;7.928;2023-04-25T04:15:17;99310.03;;;9.49;91.13
30730;BME280;17476;48.458;7.928;2023-04-25T04:17:43;99308.44;;;9.40;92.18
30730;BME280;17476;48.458;7.928;2023-04-25T04:20:09;99307.97;;;9.36;92.49
30730;BME280;17476;48.458;7.928;2023-04-25T04:22:35;99306.19;;;9.37;92.30
30730;BME280;17476;48.458;7.928;2023-04-25T04:25:01;99315.63;;;9.38;92.21
30730;BME280;17476;48.458;7.928;2023-04-25T04:27:28;99316.25;;;9.40;92.12
30730;BME280;17476;48.458;7.928;2023-04-25T04:29:54;99314.63;;;9.39;92.30
30730;BME280;17476;48.458;7.928;2023-04-25T04:32:21;99317.84;;;9.49;90.35
30730;BME280;17476;48.458;7.928;2023-04-25T04:34:49;99312.84;;;9.39;91.26
30730;BME280;17476;48.458;7.928;2023-04-25T04:37:15;99320.34;;;9.34;92.14
30730;BME280;17476;48.458;7.928;2023-04-25T04:39:41;99321.97;;;9.43;92.59
30730;BME280;17476;48.458;7.928;2023-04-25T04:42:07;99320.91;;;9.52;90.83
30730;BME280;17476;48.458;7.928;2023-04-25T04:44:34;99313.84;;;9.61;91.53
30730;BME280;17476;48.458;7.928;2023-04-25T04:47:01;99319.13;;;9.53;91.21
30730;BME280;17476;48.458;7.928;2023-04-25T04:49:27;99322.78;;;9.44;92.04
30730;BME280;17476;48.458;7.928;2023-04-25T04:51:53;99325.69;;;9.49;91.92
30730;BME280;17476;48.458;7.928;2023-04-25T04:54:20;99327.13;;;9.51;92.38
30730;BME280;17476;48.458;7.928;2023-04-25T04:56:46;99325.34;;;9.52;92.13
30730;BME280;17476;48.458;7.928;2023-04-25T04:59:11;99330.50;;;9.60;92.35
30730;BME280;17476;48.458;7.928;2023-04-25T05:01:37;99324.66;;;9.58;91.32
30730;BME280;17476;48.458;7.928;2023-04-25T05:04:04;99326.28;;;9.59;91.11
30730;BME280;17476;48.458;7.928;2023-04-25T05:06:30;99330.69;;;9.58;92.81
30730;BME280;17476;48.458;7.928;2023-04-25T05:08:57;99328.69;;;9.61;91.86
30730;BME280;17476;48.458;7.928;2023-04-25T05:11:24;99321.34;;;9.64;93.45
30730;BME280;17476;48.458;7.928;2023-04-25T05:13:53;99326.06;;;9.69;92.90
30730;BME280;17476;48.458;7.928;2023-04-25T05:16:19;99326.81;;;9.77;92.63
30730;BME280;17476;48.458;7.928;2023-04-25T05:18:46;99329.19;;;9.87;92.03
30730;BME280;17476;48.458;7.928;2023-04-25T05:21:12;99327.22;;;9.89;92.90
30730;BME280;17476;48.458;7.928;2023-04-25T05:23:38;99333.53;;;9.95;91.70
30730;BME280;17476;48.458;7.928;2023-04-25T05:26:04;99330.59;;;9.98;91.55
30730;BME280;17476;48.458;7.928;2023-04-25T05:28:31;99334.94;;;10.05;90.69
30730;BME280;17476;48.458;7.928;2023-04-25T05:30:56;99337.38;;;9.84;91.55
30730;BME280;17476;48.458;7.928;2023-04-25T05:33:23;99339.81;;;9.85;92.44
30730;BME280;17476;48.458;7.928;2023-04-25T05:35:50;99338.13;;;9.93;91.67
30730;BME280;17476;48.458;7.928;2023-04-25T05:38:16;99343.53;;;9.91;91.55
30730;BME280;17476;48.458;7.928;2023-04-25T05:40:41;99340.44;;;9.88;92.38
30730;BME280;17476;48.458;7.928;2023-04-25T05:43:07;99350.88;;;9.88;92.77
30730;BME280;17476;48.458;7.928;2023-04-25T05:45:33;99346.34;;;9.81;93.44
30730;BME280;17476;48.458;7.928;2023-04-25T05:47:59;99356.28;;;9.63;93.12
30730;BME280;17476;48.458;7.928;2023-04-25T05:50:25;99361.94;;;9.67;93.99
30730;BME280;17476;48.458;7.928;2023-04-25T05:52:51;99366.25;;;9.60;93.88
30730;BME280;17476;48.458;7.928;2023-04-25T05:55:17;99366.25;;;9.60;94.37
30730;BME280;17476;48.458;7.928;2023-04-25T05:57:43;99369.34;;;9.63;94.20
30730;BME280;17476;48.458;7.928;2023-04-25T06:00:13;99375.00;;;9.67;93.99
30730;BME280;17476;48.458;7.928;2023-04-25T06:02:40;99375.78;;;9.75;93.43
30730;BME280;17476;48.458;7.928;2023-04-25T06:05:07;99376.56;;;9.84;93.36
30730;BME280;17476;48.458;7.928;2023-04-25T06:07:33;99387.19;;;9.74;93.64
30730;BME280;17476;48.458;7.928;2023-04-25T06:09:59;99393.56;;;9.49;96.21
30730;BME280;17476;48.458;7.928;2023-04-25T06:12:26;99403.19;;;9.48;96.19
30730;BME280;17476;48.458;7.928;2023-04-25T06:14:52;99393.81;;;9.54;96.37
30730;BME280;17476;48.458;7.928;2023-04-25T06:17:18;99398.59;;;9.50;97.19
30730;BME280;17476;48.458;7.928;2023-04-25T06:19:43;99397.66;;;9.43;97.73
30730;BME280;17476;48.458;7.928;2023-04-25T06:22:10;99395.50;;;9.47;97.23
30730;BME280;17476;48.458;7.928;2023-04-25T06:24:36;99404.00;;;9.49;97.24
30730;BME280;17476;48.458;7.928;2023-04-25T06:27:01;99402.47;;;9.54;96.74
30730;BME280;17476;48.458;7.928;2023-04-25T06:29:28;99403.84;;;9.42;96.87
30730;BME280;17476;48.458;7.928;2023-04-25T06:31:53;99406.31;;;9.27;98.51
30730;BME280;17476;48.458;7.928;2023-04-25T06:34:19;99403.91;;;9.26;99.27
30730;BME280;17476;48.458;7.928;2023-04-25T06:36:46;99412.53;;;9.26;99.02
30730;BME280;17476;48.458;7.928;2023-04-25T06:39:12;99416.94;;;9.26;98.91
30730;BME280;17476;48.458;7.928;2023-04-25T06:41:37;99417.72;;;9.35;98.07
30730;BME280;17476;48.458;7.928;2023-04-25T06:44:03;99419.09;;;9.22;98.97
30730;BME280;17476;48.458;7.928;2023-04-25T06:46:29;99424.31;;;9.14;99.82
30730;BME280;17476;48.458;7.928;2023-04-25T06:48:55;99425.28;;;9.13;99.68
30730;BME280;17476;48.458;7.928;2023-04-25T06:51:21;99429.69;;;9.13;100.00
30730;BME280;17476;48.458;7.928;2023-04-25T06:53:47;99427.41;;;9.18;100.00
30730;BME280;17476;48.458;7.928;2023-04-25T06:56:12;99427.19;;;9.27;100.00
30730;BME280;17476;48.458;7.928;2023-04-25T06:58:38;99436.66;;;9.37;99.44
30730;BME280;17476;48.458;7.928;2023-04-25T07:01:04;99435.13;;;9.50;98.95
30730;BME280;17476;48.458;7.928;2023-04-25T07:03:30;99442.00;;;9.43;99.00
30730;BME280;17476;48.458;7.928;2023-04-25T07:05:56;99450.81;;;9.42;100.00
30730;BME280;17476;48.458;7.928;2023-04-25T07:08:21;99448.34;;;9.49;99.63
30730;BME280;17476;48.458;7.928;2023-04-25T07:10:47;99452.88;;;9.63;99.15
30730;BME280;17476;48.458;7.928;2023-04-25T07:13:13;99450.72;;;9.67;98.09
30730;BME280;17476;48.458;7.928;2023-04-25T07:15:39;99457.25;;;9.71;98.73
30730;BME280;17476;48.458;7.928;2023-04-25T07:18:05;99463.09;;;9.73;97.40
30730;BME280;17476;48.458;7.928;2023-04-25T07:20:30;99466.84;;;9.78;96.11
30730;BME280;17476;48.458;7.928;2023-04-25T07:22:57;99473.34;;;9.82;96.75
30730;BME280;17476;48.458;7.928;2023-04-25T07:25:23;99468.41;;;9.88;96.73
30730;BME280;17476;48.458;7.928;2023-04-25T07:27:49;99473.31;;;9.91;94.81
30730;BME280;17476;48.458;7.928;2023-04-25T07:30:15;99479.00;;;9.94;92.85
30730;BME280;17476;48.458;7.928;2023-04-25T07:32:40;99487.19;;;9.91;92.24
30730;BME280;17476;48.458;7.928;2023-04-25T07:35:07;99484.91;;;9.88;93.17
30730;BME280;17476;48.458;7.928;2023-04-25T07:37:36;99488.31;;;9.89;91.67
30730;BME280;17476;48.458;7.928;2023-04-25T07:40:03;99498.63;;;9.82;94.35
30730;BME280;17476;48.458;7.928;2023-04-25T07:42:30;99501.09;;;9.83;94.79
30730;BME280;17476;48.458;7.928;2023-04-25T07:44:56;99502.69;;;9.93;94.76
30730;BME280;17476;48.458;7.928;2023-04-25T07:47:21;99504.13;;;9.95;93.75
30730;BME280;17476;48.458;7.928;2023-04-25T07:49:47;99511.50;;;9.92;93.52
30730;BME280;17476;48.458;7.928;2023-04-25T07:52:13;99510.06;;;9.89;94.57
30730;BME280;17476;48.458;7.928;2023-04-25T07:54:39;99523.41;;;9.94;94.26
30730;BME280;17476;48.458;7.928;2023-04-25T07:57:05;99529.16;;;9.90;93.22
30730;BME280;17476;48.458;7.928;2023-04-25T07:59:34;99530.59;;;9.92;94.41
30730;BME280;17476;48.458;7.928;2023-04-25T08:02:00;99539.38;;;9.99;94.46
30730;BME280;17476;48.458;7.928;2023-04-25T08:04:26;99552.09;;;10.02;94.12
30730;BME280;17476;48.458;7.928;2023-04-25T08:06:52;99550.47;;;10.01;93.83
30730;BME280;17476;48.458;7.928;2023-04-25T08:09:20;99559.25;;;10.08;93.65
30730;BME280;17476;48.458;7.928;2023-04-25T08:11:46;99560.56;;;10.12;93.44
30730;BME280;17476;48.458;7.928;2023-04-25T08:14:12;99564.75;;;10.22;93.74
30730;BME280;17476;48.458;7.928;2023-04-25T08:16:39;99569.97;;;10.22;92.50
30730;BME280;17476;48.458;7.928;2023-04-25T08:19:05;99576.59;;;10.01;93.88
30730;BME280;17476;48.458;7.928;2023-04-25T08:21:31;99582.78;;;10.08;94.34
30730;BME280;17476;48.458;7.928;2023-04-25T08:23:57;99579.97;;;10.18;92.62
30730;BME280;17476;48.458;7.928;2023-04-25T08:26:24;99591.59;;;10.24;89.26
30730;BME280;17476;48.458;7.928;2023-04-25T08:28:50;99594.66;;;10.19;90.54
30730;BME280;17476;48.458;7.928;2023-04-25T08:31:16;99599.88;;;10.19;92.48
30730;BME280;17476;48.458;7.928;2023-04-25T08:33:42;99603.31;;;10.20;92.56
30730;BME280;17476;48.458;7.928;2023-04-25T08:36:09;99611.38;;;10.02;89.63
30730;BME280;17476;48.458;7.928;2023-04-25T08:38:35;99608.13;;;10.00;88.71
30730;BME280;17476;48.458;7.928;2023-04-25T08:41:02;99614.47;;;10.05;90.89
30730;BME280;17476;48.458;7.928;2023-04-25T08:43:29;99624.09;;;10.13;88.81
30730;BME280;17476;48.458;7.928;2023-04-25T08:46:00;99621.59;;;10.20;92.01
30730;BME280;17476;48.458;7.928;2023-04-25T08:48:27;99626.16;;;10.34;92.03
30730;BME280;17476;48.458;7.928;2023-04-25T08:50:55;99629.22;;;10.46;90.92
30730;BME280;17476;48.458;7.928;2023-04-25T08:53:27;99635.72;;;10.50;90.72
30730;BME280;17476;48.458;7.928;2023-04-25T08:55:58;99630.47;;;10.58;91.33
30730;BME280;17476;48.458;7.928;2023-04-25T08:58:24;99631.41;;;10.65;90.78
30730;BME280;17476;48.458;7.928;2023-04-25T09:00:52;99633.63;;;10.76;89.95
30730;BME280;17476;48.458;7.928;2023-04-25T09:03:18;99634.91;;;10.80;89.72
30730;BME280;17476;48.458;7.928;2023-04-25T09:05:44;99637.03;;;10.85;88.88
30730;BME280;17476;48.458;7.928;2023-04-25T09:08:10;99646.44;;;10.94;88.41
30730;BME280;17476;48.458;7.928;2023-04-25T09:10:37;99641.09;;;10.87;87.39
30730;BME280;17476;48.458;7.928;2023-04-25T09:13:27;99648.13;;;10.87;86.82
30730;BME280;17476;48.458;7.928;2023-04-25T09:15:58;99648.75;;;10.89;86.96
30730;BME280;17476;48.458;7.928;2023-04-25T09:18:28;99648.38;;;11.00;86.85
30730;BME280;17476;48.458;7.928;2023-04-25T09:20:58;99654.16;;;11.18;88.38
30730;BME280;17476;48.458;7.928;2023-04-25T09:23:30;99654.94;;;10.96;84.27
30730;BME280;17476;48.458;7.928;2023-04-25T09:25:56;99656.91;;;10.94;87.58
30730;BME280;17476;48.458;7.928;2023-04-25T09:28:26;99664.72;;;11.02;84.91
30730;BME280;17476;48.458;7.928;2023-04-25T09:30:57;99663.25;;;11.00;88.78
30730;BME280;17476;48.458;7.928;2023-04-25T09:33:32;99661.66;;;10.90;88.45
30730;BME280;17476;48.458;7.928;2023-04-25T09:36:09;99659.34;;;10.96;88.27
30730;BME280;17476;48.458;7.928;2023-04-25T09:38:44;99661.91;;;11.04;88.44
30730;BME280;17476;48.458;7.928;2023-04-25T09:41:11;99663.56;;;11.05;87.14
30730;BME280;17476;48.458;7.928;2023-04-25T09:43:39;99658.44;;;11.11;87.24
30730;BME280;17476;48.458;7.928;2023-04-25T09:46:11;99672.41;;;11.27;86.74
30730;BME280;17476;48.458;7.928;2023-04-25T09:48:37;99675.78;;;11.35;86.44
30730;BME280;17476;48.458;7.928;2023-04-25T09:53:43;99678.09;;;11.30;85.62
30730;BME280;17476;48.458;7.928;2023-04-25T09:56:11;99683.88;;;11.26;83.22
30730;BME280;17476;48.458;7.928;2023-04-25T09:58:40;99691.25;;;11.22;85.84
30730;BME280;17476;48.458;7.928;2023-04-25T10:01:10;99685.38;;;11.20;85.85
30730;BME280;17476;48.458;7.928;2023-04-25T10:03:38;99689.84;;;11.11;86.60
30730;BME280;17476;48.458;7.928;2023-04-25T10:06:18;99691.94;;;11.16;84.88
30730;BME280;17476;48.458;7.928;2023-04-25T10:08:45;99683.38;;;10.99;86.74
30730;BME280;17476;48.458;7.928;2023-04-25T10:11:14;99696.41;;;11.07;85.54
30730;BME280;17476;48.458;7.928;2023-04-25T10:13:42;99687.53;;;10.85;84.61
30730;BME280;17476;48.458;7.928;2023-04-25T10:16:08;99694.13;;;10.73;88.81
30730;BME280;17476;48.458;7.928;2023-04-25T10:18:34;99694.03;;;10.98;88.85
30730;BME280;17476;48.458;7.928;2023-04-25T10:21:01;99692.28;;;11.13;88.25
30730;BME280;17476;48.458;7.928;2023-04-25T10:23:30;99687.28;;;11.49;87.32
30730;BME280;17476;48.458;7.928;2023-04-25T10:25:57;99680.81;;;11.83;85.44
30730;BME280;17476;48.458;7.928;2023-04-25T10:28:24;99690.28;;;12.07;84.29
30730;BME280;17476;48.458;7.928;2023-04-25T10:31:07;99688.28;;;12.38;83.06
30730;BME280;17476;48.458;7.928;2023-04-25T10:33:39;99688.56;;;12.28;82.81
30730;BME280;17476;48.458;7.928;2023-04-25T10:36:15;99678.69;;;12.45;82.19
30730;BME280;17476;48.458;7.928;2023-04-25T10:38:45;99684.22;;;12.36;82.07
30730;BME280;17476;48.458;7.928;2023-04-25T10:41:12;99681.78;;;12.49;82.65
30730;BME280;17476;48.458;7.928;2023-04-25T10:43:43;99681.28;;;12.75;81.64
30730;BME280;17476;48.458;7.928;2023-04-25T10:46:24;99679.13;;;13.00;81.33
30730;BME280;17476;48.458;7.928;2023-04-25T10:48:56;99673.59;;;13.09;79.71
30730;BME280;17476;48.458;7.928;2023-04-25T10:51:34;99682.38;;;13.38;80.22
30730;BME280;17476;48.458;7.928;2023-04-25T10:54:05;99672.28;;;13.35;79.64
30730;BME280;17476;48.458;7.928;2023-04-25T10:56:32;99675.94;;;13.41;80.13
30730;BME280;17476;48.458;7.928;2023-04-25T10:59:19;99677.59;;;13.42;76.62
30730;BME280;17476;48.458;7.928;2023-04-25T11:01:47;99677.16;;;13.66;80.96
30730;BME280;17476;48.458;7.928;2023-04-25T11:04:29;99669.91;;;14.65;83.13
30730;BME280;17476;48.458;7.928;2023-04-25T11:09:51;99672.75;;;15.45;77.26
30730;BME280;17476;48.458;7.928;2023-04-25T11:12:17;99675.22;;;15.73;74.07
30730;BME280;17476;48.458;7.928;2023-04-25T11:14:43;99680.69;;;15.71;72.95
30730;BME280;17476;48.458;7.928;2023-04-25T11:17:09;99681.06;;;15.42;69.62
30730;BME280;17476;48.458;7.928;2023-04-25T11:19:36;99689.63;;;14.89;68.30
30730;BME280;17476;48.458;7.928;2023-04-25T11:22:03;99680.47;;;14.72;74.08
30730;BME280;17476;48.458;7.928;2023-04-25T11:24:32;99678.28;;;14.82;74.40
30730;BME280;17476;48.458;7.928;2023-04-25T11:27:05;99680.75;;;14.97;71.35
30730;BME280;17476;48.458;7.928;2023-04-25T11:29:34;99686.47;;;15.07;72.93
30730;BME280;17476;48.458;7.928;2023-04-25T11:32:01;99679.13;;;14.96;68.90
30730;BME280;17476;48.458;7.928;2023-04-25T11:34:28;99674.31;;;15.06;71.93
30730;BME280;17476;48.458;7.928;2023-04-25T11:37:02;99676.19;;;15.25;72.80
30730;BME280;17476;48.458;7.928;2023-04-25T11:39:28;99673.56;;;15.45;73.04
30730;BME280;17476;48.458;7.928;2023-04-25T11:41:55;99671.16;;;15.83;74.56
30730;BME280;17476;48.458;7.928;2023-04-25T11:44:22;99673.47;;;16.38;71.90
30730;BME280;17476;48.458;7.928;2023-04-25T11:46:48;99679.25;;;15.95;69.48
30730;BME280;17476;48.458;7.928;2023-04-25T11:49:14;99688.88;;;15.02;68.87
30730;BME280;17476;48.458;7.928;2023-04-25T11:51:46;99686.16;;;14.75;70.95
30730;BME280;17476;48.458;7.928;2023-04-25T11:54:12;99682.50;;;14.77;71.33
30730;BME280;17476;48.458;7.928;2023-04-25T11:56:46;99679.25;;;14.33;72.75
30730;BME280;17476;48.458;7.928;2023-04-25T11:59:12;99672.94;;;14.62;75.84
30730;BME280;17476;48.458;7.928;2023-04-25T12:01:41;99673.66;;;14.91;70.00
30730;BME280;17476;48.458;7.928;2023-04-25T12:04:21;99667.91;;;15.68;71.65
30730;BME280;17476;48.458;7.928;2023-04-25T12:06:51;99670.06;;;15.05;66.18
30730;BME280;17476;48.458;7.928;2023-04-25T12:09:28;99668.47;;;15.57;71.60
30730;BME280;17476;48.458;7.928;2023-04-25T12:11:56;99669.13;;;15.99;67.81
30730;BME280;17476;48.458;7.928;2023-04-25T12:14:29;99666.03;;;16.15;64.53
30730;BME280;17476;48.458;7.928;2023-04-25T12:16:58;99674.00;;;15.89;67.70
30730;BME280;17476;48.458;7.928;2023-04-25T12:19:26;99671.50;;;16.20;64.51
30730;BME280;17476;48.458;7.928;2023-04-25T12:21:52;99666.28;;;17.41;67.66
30730;BME280;17476;48.458;7.928;2023-04-25T12:24:23;99670.81;;;18.09;68.06
30730;BME280;17476;48.458;7.928;2023-04-25T12:26:59;99668.13;;;19.01;66.26
30730;BME280;17476;48.458;7.928;2023-04-25T12:29:29;99656.06;;;19.82;62.92
30730;BME280;17476;48.458;7.928;2023-04-25T12:31:55;99662.31;;;19.99;61.73
30730;BME280;17476;48.458;7.928;2023-04-25T12:34:22;99660.31;;;20.18;52.10
30730;BME280;17476;48.458;7.928;2023-04-25T12:36:51;99659.66;;;19.99;61.35
30730;BME280;17476;48.458;7.928;2023-04-25T12:39:24;99660.16;;;19.01;50.61
30730;BME280;17476;48.458;7.928;2023-04-25T12:41:51;99677.72;;;18.28;59.89
30730;BME280;17476;48.458;7.928;2023-04-25T12:44:20;99678.41;;;18.24;56.94
30730;BME280;17476;48.458;7.928;2023-04-25T12:46:48;99678.13;;;18.32;59.09
30730;BME280;17476;48.458;7.928;2023-04-25T12:49:14;99677.38;;;18.25;59.54
30730;BME280;17476;48.458;7.928;2023-04-25T12:51:40;99682.75;;;18.37;59.94
30730;BME280;17476;48.458;7.928;2023-04-25T12:54:07;99684.66;;;17.86;54.36
30730;BME280;17476;48.458;7.928;2023-04-25T12:56:34;99704.94;;;17.67;57.54
30730;BME280;17476;48.458;7.928;2023-04-25T12:59:01;99717.59;;;17.59;59.38
30730;BME280;17476;48.458;7.928;2023-04-25T13:01:28;99734.66;;;16.93;58.80
30730;BME280;17476;48.458;7.928;2023-04-25T13:03:55;99748.63;;;16.29;63.45
30730;BME280;17476;48.458;7.928;2023-04-25T13:06:21;99746.59;;;15.78;66.05
30730;BME280;17476;48.458;7.928;2023-04-25T13:08:48;99755.84;;;15.34;67.02
30730;BME280;17476;48.458;7.928;2023-04-25T13:11:13;99751.66;;;14.92;69.64